Time;durP1;ratioP1;P1;durP2;ratioP2;P2;SDS_P1;SDS_P2;PMS_P1;PMS_P2;Temp;Humidity;BMP_temperature;BMP_pressure;BME280_temperature;BME280_humidity;BME280_pressure;Samples;Min_cycle;Max_cycle;Signal;HPM_P1;HPM_P2
2023/05/03 00:00:22;;;;;;;6.07;4.27;;;9.00;65.90;;;;;;921180;153;27470;-76
2023/05/03 00:02:48;;;;;;;5.03;4.07;;;9.00;66.10;;;;;;921967;153;27472;-76
2023/05/03 00:05:15;;;;;;;4.67;4.07;;;9.00;66.10;;;;;;916460;153;27369;-76
2023/05/03 00:07:42;;;;;;;6.47;4.27;;;9.00;66.10;;;;;;921125;153;27399;-76
2023/05/03 00:10:09;;;;;;;5.47;4.33;;;8.90;66.10;;;;;;912994;154;27393;-76
2023/05/03 00:12:35;;;;;;;6.63;4.07;;;8.90;66.30;;;;;;921891;153;27363;-76
2023/05/03 00:15:01;;;;;;;5.73;4.27;;;8.90;66.30;;;;;;924698;152;27355;-76
2023/05/03 00:17:28;;;;;;;5.53;4.90;;;8.90;66.40;;;;;;915371;154;27494;-76
2023/05/03 00:19:55;;;;;;;5.20;4.13;;;8.80;66.30;;;;;;922118;153;27448;-76
2023/05/03 00:22:21;;;;;;;6.20;4.50;;;8.80;66.40;;;;;;921327;152;27418;-76
2023/05/03 00:24:49;;;;;;;5.23;4.47;;;8.80;66.50;;;;;;912403;156;27373;-76
2023/05/03 00:27:14;;;;;;;5.10;4.13;;;8.80;66.60;;;;;;911631;156;27502;-76
2023/05/03 00:29:41;;;;;;;5.80;4.33;;;8.70;66.70;;;;;;937801;150;27414;-76
2023/05/03 00:32:09;;;;;;;6.67;5.20;;;8.70;66.70;;;;;;937769;150;27482;-76
2023/05/03 00:34:34;;;;;;;7.93;5.40;;;8.70;66.80;;;;;;938360;152;27356;-76
2023/05/03 00:37:00;;;;;;;11.63;4.77;;;8.60;66.80;;;;;;938133;150;27495;-76
2023/05/03 00:39:27;;;;;;;6.33;4.80;;;8.60;66.90;;;;;;933948;149;27370;-76
2023/05/03 00:41:54;;;;;;;9.37;5.17;;;8.60;67.00;;;;;;933761;149;27443;-77
2023/05/03 00:44:20;;;;;;;6.23;4.80;;;8.50;66.90;;;;;;934756;149;27443;-76
2023/05/03 00:46:47;;;;;;;5.27;4.40;;;8.50;67.10;;;;;;917790;152;27470;-77
2023/05/03 00:49:13;;;;;;;5.30;4.10;;;8.50;67.20;;;;;;926636;152;27363;-76
2023/05/03 00:51:40;;;;;;;5.67;4.43;;;8.50;67.20;;;;;;927209;152;27335;-76
2023/05/03 00:54:07;;;;;;;4.30;3.90;;;8.40;67.20;;;;;;926638;152;27384;-76
2023/05/03 00:56:33;;;;;;;4.17;3.77;;;8.40;67.30;;;;;;926387;152;27405;-76
2023/05/03 00:59:00;;;;;;;6.73;3.80;;;8.40;67.40;;;;;;927063;152;27476;-76
2023/05/03 01:01:28;;;;;;;4.47;3.97;;;8.30;68.20;;;;;;926473;152;27339;-76
2023/05/03 01:03:53;;;;;;;7.23;3.87;;;8.30;67.50;;;;;;912048;153;27945;-76
2023/05/03 01:06:38;;;;;;;4.83;4.33;;;8.30;67.50;;;;;;935771;149;27864;-76
2023/05/03 01:09:38;;;;;;;5.87;3.93;;;8.20;67.70;;;;;;934143;150;27502;-76
2023/05/03 01:12:13;;;;;;;5.07;3.87;;;8.20;67.60;;;;;;934033;149;27342;-77
2023/05/03 01:14:59;;;;;;;4.00;3.70;;;8.20;67.60;;;;;;911631;152;27347;-76
2023/05/03 01:17:25;;;;;;;5.23;3.87;;;8.10;67.70;;;;;;918032;152;27316;-76
2023/05/03 01:19:51;;;;;;;5.17;3.63;;;8.10;67.70;;;;;;918588;152;27407;-76
2023/05/03 01:22:27;;;;;;;4.97;3.70;;;8.10;67.90;;;;;;917792;152;27811;-76
2023/05/03 01:25:09;;;;;;;4.50;3.60;;;8.00;68.00;;;;;;911640;153;27859;-76
2023/05/03 01:27:35;;;;;;;6.47;3.80;;;8.00;67.90;;;;;;933643;149;27334;-76
2023/05/03 01:30:04;;;;;;;4.80;3.77;;;8.00;68.00;;;;;;923277;150;27807;-76
2023/05/03 01:32:33;;;;;;;4.20;3.80;;;8.00;68.10;;;;;;917464;152;27371;-76
2023/05/03 01:35:12;;;;;;;5.03;4.20;;;7.90;68.00;;;;;;911345;152;27363;-76
2023/05/03 01:37:39;;;;;;;5.93;4.20;;;7.90;68.20;;;;;;931893;149;27275;-76
2023/05/03 01:40:06;;;;;;;7.07;4.07;;;7.90;68.20;;;;;;934334;149;27302;-76
2023/05/03 01:42:32;;;;;;;7.00;4.87;;;7.90;68.20;;;;;;936241;151;27399;-76
2023/05/03 01:44:59;;;;;;;4.43;3.90;;;7.90;68.30;;;;;;938478;152;27412;-76
2023/05/03 01:47:25;;;;;;;4.33;3.93;;;7.80;68.30;;;;;;937540;150;27278;-76
2023/05/03 01:49:52;;;;;;;4.87;4.13;;;7.80;68.30;;;;;;938382;150;27328;-76
2023/05/03 01:52:18;;;;;;;5.67;3.70;;;7.80;68.30;;;;;;938571;150;27373;-75
2023/05/03 01:54:45;;;;;;;8.27;4.60;;;7.80;68.60;;;;;;939080;150;27831;-76
2023/05/03 01:57:11;;;;;;;4.50;3.67;;;7.80;68.60;;;;;;937454;150;27426;-75
2023/05/03 01:59:38;;;;;;;6.47;3.97;;;7.80;68.90;;;;;;937770;152;27302;-76
2023/05/03 02:02:05;;;;;;;9.37;4.07;;;7.70;68.60;;;;;;937690;152;27369;-76
2023/05/03 02:04:31;;;;;;;4.97;3.90;;;7.70;68.80;;;;;;938247;152;28090;-76
2023/05/03 02:06:58;;;;;;;5.67;4.23;;;7.70;68.80;;;;;;938154;150;27330;-76
2023/05/03 02:09:24;;;;;;;4.40;4.00;;;7.70;68.90;;;;;;938430;151;27769;-75
2023/05/03 02:11:51;;;;;;;6.30;4.07;;;7.70;69.10;;;;;;938687;152;27364;-75
2023/05/03 02:14:18;;;;;;;6.33;3.93;;;7.60;68.80;;;;;;938262;152;27355;-75
2023/05/03 02:16:44;;;;;;;6.20;4.60;;;7.60;69.00;;;;;;919249;152;27513;-76
2023/05/03 02:19:11;;;;;;;4.33;3.87;;;7.60;69.00;;;;;;912526;156;27336;-76
2023/05/03 02:21:37;;;;;;;5.10;4.33;;;7.60;69.10;;;;;;918651;152;27453;-76
2023/05/03 02:24:04;;;;;;;5.77;4.13;;;7.60;69.30;;;;;;937205;150;27383;-76
2023/05/03 02:26:30;;;;;;;5.07;4.03;;;7.60;69.00;;;;;;937487;151;27360;-76
2023/05/03 02:28:57;;;;;;;4.90;3.93;;;7.50;69.10;;;;;;938199;151;27339;-76
2023/05/03 02:31:24;;;;;;;4.30;3.90;;;7.50;69.00;;;;;;938403;151;27434;-76
2023/05/03 02:33:50;;;;;;;5.90;3.83;;;7.50;69.20;;;;;;916293;153;27400;-76
2023/05/03 02:36:17;;;;;;;4.17;3.73;;;7.50;69.20;;;;;;922549;154;27504;-76
2023/05/03 02:38:43;;;;;;;4.83;3.90;;;7.40;69.20;;;;;;927206;154;27360;-76
2023/05/03 02:41:10;;;;;;;4.77;3.60;;;7.50;69.40;;;;;;920664;151;27341;-75
2023/05/03 02:43:37;;;;;;;5.63;4.00;;;7.40;69.40;;;;;;911867;152;27352;-75
2023/05/03 02:46:03;;;;;;;7.73;3.93;;;7.40;69.20;;;;;;918542;152;27395;-76
2023/05/03 02:48:30;;;;;;;4.87;3.87;;;7.40;69.10;;;;;;936451;152;27356;-76
2023/05/03 02:50:56;;;;;;;6.70;4.23;;;7.40;69.20;;;;;;937309;152;27468;-76
2023/05/03 02:53:23;;;;;;;6.53;4.03;;;7.40;69.00;;;;;;936527;152;27475;-76
2023/05/03 02:55:50;;;;;;;4.87;4.20;;;7.40;69.20;;;;;;935590;152;27468;-76
2023/05/03 02:58:16;;;;;;;5.63;4.23;;;7.30;69.50;;;;;;936786;151;27325;-75
2023/05/03 03:00:43;;;;;;;7.23;3.80;;;7.30;69.50;;;;;;936107;152;27294;-75
2023/05/03 03:03:09;;;;;;;5.33;4.17;;;7.30;69.50;;;;;;936438;151;27320;-75
2023/05/03 03:05:36;;;;;;;6.80;3.93;;;7.30;69.40;;;;;;937438;152;27465;-75
2023/05/03 03:08:02;;;;;;;4.73;4.23;;;7.30;69.60;;;;;;936146;150;27892;-75
2023/05/03 03:10:29;;;;;;;6.43;4.20;;;7.20;69.50;;;;;;936937;150;27446;-75
2023/05/03 03:12:56;;;;;;;4.43;4.00;;;7.20;69.60;;;;;;936296;152;27336;-75
2023/05/03 03:15:22;;;;;;;4.97;4.23;;;7.20;69.60;;;;;;936589;152;27344;-75
2023/05/03 03:17:49;;;;;;;4.97;4.47;;;7.20;69.80;;;;;;935708;149;27369;-75
2023/05/03 03:20:16;;;;;;;5.37;3.97;;;7.20;69.90;;;;;;936224;150;27309;-75
2023/05/03 03:22:44;;;;;;;6.00;4.17;;;7.10;69.90;;;;;;936218;149;27458;-75
2023/05/03 03:25:09;;;;;;;5.23;4.20;;;7.10;70.00;;;;;;936286;152;27361;-76
2023/05/03 03:27:35;;;;;;;5.17;4.30;;;7.10;70.00;;;;;;935380;152;27376;-75
2023/05/03 03:30:02;;;;;;;5.37;4.13;;;7.10;70.10;;;;;;936728;150;27364;-75
2023/05/03 03:32:28;;;;;;;4.53;3.73;;;7.10;70.30;;;;;;936329;152;27278;-75
2023/05/03 03:34:55;;;;;;;5.27;4.20;;;7.00;70.20;;;;;;937051;151;27334;-75
2023/05/03 03:37:22;;;;;;;4.80;3.93;;;7.00;70.30;;;;;;937412;149;27489;-75
2023/05/03 03:39:48;;;;;;;4.53;3.80;;;7.00;70.30;;;;;;937245;152;27442;-76
2023/05/03 03:42:15;;;;;;;8.53;4.80;;;6.90;70.30;;;;;;937239;150;27438;-76
2023/05/03 03:44:41;;;;;;;5.97;4.57;;;6.90;70.30;;;;;;943014;151;27452;-75
2023/05/03 03:47:08;;;;;;;5.07;3.80;;;6.80;70.30;;;;;;941899;151;28516;-75
2023/05/03 03:49:35;;;;;;;5.27;4.10;;;6.80;70.00;;;;;;942797;151;27461;-75
2023/05/03 03:52:01;;;;;;;6.57;4.20;;;6.80;70.30;;;;;;942943;151;27361;-75
2023/05/03 03:54:28;;;;;;;5.80;4.10;;;6.80;70.30;;;;;;943299;151;27335;-75
2023/05/03 03:56:54;;;;;;;5.43;4.60;;;6.80;70.50;;;;;;942938;151;27339;-75
2023/05/03 03:59:21;;;;;;;4.37;3.77;;;6.80;70.70;;;;;;943542;151;27304;-75
2023/05/03 04:01:47;;;;;;;6.20;4.40;;;6.70;70.70;;;;;;942883;151;27376;-75
2023/05/03 04:04:14;;;;;;;5.77;4.23;;;6.80;71.40;;;;;;942970;151;27430;-75
2023/05/03 04:06:40;;;;;;;5.53;4.30;;;6.70;70.70;;;;;;943254;151;27327;-75
2023/05/03 04:09:08;;;;;;;5.57;3.77;;;6.70;70.70;;;;;;942564;151;27374;-75
2023/05/03 04:11:34;;;;;;;4.23;3.83;;;6.70;70.90;;;;;;943028;151;27369;-75
2023/05/03 04:14:01;;;;;;;4.90;4.40;;;6.80;70.90;;;;;;943103;151;28113;-75
2023/05/03 04:16:27;;;;;;;6.33;4.57;;;6.70;71.00;;;;;;943415;150;27311;-75
2023/05/03 04:18:53;;;;;;;8.03;4.80;;;6.70;71.20;;;;;;942924;151;27430;-76
2023/05/03 04:21:20;;;;;;;6.60;4.27;;;6.80;71.30;;;;;;944062;149;27461;-76
2023/05/03 04:23:47;;;;;;;4.53;3.87;;;6.70;71.20;;;;;;942871;151;27455;-76
2023/05/03 04:26:13;;;;;;;7.70;4.47;;;6.70;71.40;;;;;;942728;151;27464;-75
2023/05/03 04:28:40;;;;;;;5.77;3.97;;;6.80;71.40;;;;;;942790;151;27662;-75
2023/05/03 04:31:07;;;;;;;6.37;3.80;;;6.80;71.50;;;;;;943449;149;27420;-75
2023/05/03 04:33:33;;;;;;;4.80;4.30;;;6.80;71.60;;;;;;943130;151;27443;-77
2023/05/03 04:36:00;;;;;;;5.33;4.07;;;6.80;71.60;;;;;;942534;151;27447;-77
2023/05/03 04:38:27;;;;;;;4.67;4.17;;;6.90;71.70;;;;;;942749;149;27421;-78
2023/05/03 04:40:53;;;;;;;7.70;4.37;;;7.00;71.80;;;;;;942656;151;27431;-78
2023/05/03 04:43:19;;;;;;;5.70;4.37;;;7.00;71.60;;;;;;940051;151;27380;-78
2023/05/03 04:45:46;;;;;;;5.57;4.10;;;7.10;71.40;;;;;;937178;151;27357;-76
2023/05/03 04:48:12;;;;;;;5.60;4.23;;;7.10;71.60;;;;;;936729;152;27374;-75
2023/05/03 04:50:39;;;;;;;6.03;4.67;;;7.20;71.50;;;;;;937403;152;27349;-75
2023/05/03 04:53:06;;;;;;;7.57;4.50;;;7.20;71.70;;;;;;937404;151;27362;-75
2023/05/03 04:55:32;;;;;;;6.80;4.13;;;7.30;71.60;;;;;;937411;152;27456;-75
2023/05/03 04:57:59;;;;;;;4.37;3.90;;;7.40;71.80;;;;;;936105;152;27429;-75
2023/05/03 05:00:25;;;;;;;4.67;3.77;;;7.60;72.20;;;;;;936726;151;27335;-75
2023/05/03 05:02:52;;;;;;;6.93;4.10;;;7.80;72.70;;;;;;937578;151;27292;-75
2023/05/03 05:05:19;;;;;;;7.27;4.43;;;8.00;73.30;;;;;;935984;152;27477;-75
2023/05/03 05:07:45;;;;;;;6.03;4.30;;;8.40;74.10;;;;;;937216;152;27376;-75
2023/05/03 05:10:13;;;;;;;8.00;4.10;;;8.90;74.80;;;;;;935322;149;27491;-75
2023/05/03 05:12:38;;;;;;;5.30;3.80;;;9.40;75.10;;;;;;936589;151;27278;-75
2023/05/03 05:15:05;;;;;;;5.33;3.73;;;10.00;75.10;;;;;;936602;152;27462;-75
2023/05/03 05:17:32;;;;;;;6.70;4.13;;;10.60;74.60;;;;;;936830;150;27524;-75
2023/05/03 05:19:58;;;;;;;4.10;3.73;;;11.30;74.00;;;;;;937039;151;27454;-75
2023/05/03 05:22:25;;;;;;;6.53;3.63;;;11.90;73.30;;;;;;936503;151;27997;-75
2023/05/03 05:24:51;;;;;;;3.80;3.10;;;12.60;72.30;;;;;;935909;149;27326;-75
2023/05/03 05:27:18;;;;;;;4.90;3.60;;;13.20;71.40;;;;;;936128;149;27482;-75
2023/05/03 05:29:45;;;;;;;3.55;3.25;;;13.90;70.70;;;;;;936994;151;27369;-75
2023/05/03 05:32:11;;;;;;;4.05;3.02;;;14.50;69.50;;;;;;935778;152;27453;-75
2023/05/03 05:34:38;;;;;;;4.20;3.00;;;15.00;68.30;;;;;;936007;152;27405;-75
2023/05/03 05:37:05;;;;;;;3.47;3.17;;;15.50;67.10;;;;;;936109;152;27308;-75
2023/05/03 05:39:31;;;;;;;4.35;3.05;;;16.10;66.50;;;;;;936223;152;27392;-75
2023/05/03 05:41:57;;;;;;;4.65;3.00;;;16.60;65.80;;;;;;936346;152;27316;-75
2023/05/03 05:44:24;;;;;;;4.87;2.92;;;17.20;64.80;;;;;;936361;152;27360;-75
2023/05/03 05:46:51;;;;;;;4.78;3.00;;;17.70;63.80;;;;;;937224;150;27343;-75
2023/05/03 05:49:17;;;;;;;4.30;3.05;;;18.30;63.00;;;;;;936812;152;27437;-75
2023/05/03 05:51:44;;;;;;;3.98;2.60;;;18.80;62.50;;;;;;936208;152;27352;-75
2023/05/03 05:54:10;;;;;;;4.00;2.70;;;19.40;61.30;;;;;;936708;150;27437;-75
2023/05/03 05:56:37;;;;;;;4.40;3.05;;;19.90;60.20;;;;;;935897;152;27450;-75
2023/05/03 05:59:04;;;;;;;3.00;2.70;;;20.50;59.40;;;;;;937028;149;27307;-75
2023/05/03 06:01:31;;;;;;;4.75;3.05;;;21.00;58.30;;;;;;936031;151;27368;-75
2023/05/03 06:03:57;;;;;;;3.45;2.98;;;21.40;57.20;;;;;;936504;152;27309;-75
2023/05/03 06:06:23;;;;;;;5.20;2.58;;;21.80;57.30;;;;;;934628;152;27336;-75
2023/05/03 06:08:50;;;;;;;3.02;2.67;;;22.20;56.20;;;;;;936761;150;27779;-75
2023/05/03 06:11:17;;;;;;;4.00;2.55;;;22.60;56.00;;;;;;936549;149;27862;-75
2023/05/03 06:13:43;;;;;;;4.33;2.67;;;23.00;55.00;;;;;;936178;152;27354;-75
2023/05/03 06:16:10;;;;;;;3.27;2.50;;;23.40;54.20;;;;;;937601;151;27315;-75
2023/05/03 06:18:37;;;;;;;3.50;2.47;;;23.70;53.50;;;;;;937572;152;27317;-75
2023/05/03 06:21:03;;;;;;;3.00;2.58;;;24.10;53.10;;;;;;937494;151;27428;-74
2023/05/03 06:23:31;;;;;;;2.52;2.33;;;24.50;52.60;;;;;;937612;150;27365;-76
2023/05/03 06:25:56;;;;;;;4.28;2.52;;;24.90;52.10;;;;;;937226;152;27422;-76
2023/05/03 06:28:23;;;;;;;2.60;2.20;;;25.40;51.70;;;;;;935975;151;27368;-76
2023/05/03 06:30:49;;;;;;;3.22;2.20;;;25.80;51.00;;;;;;937712;152;27325;-76
2023/05/03 06:33:16;;;;;;;3.30;2.27;;;26.30;50.80;;;;;;936983;152;27497;-76
2023/05/03 06:35:42;;;;;;;3.85;2.72;;;26.80;50.20;;;;;;937156;152;27360;-78
2023/05/03 06:38:10;;;;;;;3.37;2.27;;;27.30;49.70;;;;;;936835;152;27262;-75
2023/05/03 06:40:36;;;;;;;2.87;2.35;;;27.80;49.20;;;;;;937222;152;27330;-75
2023/05/03 06:43:02;;;;;;;3.62;2.45;;;28.30;48.90;;;;;;937263;152;27371;-75
2023/05/03 06:45:29;;;;;;;2.75;2.30;;;28.80;47.90;;;;;;936979;151;27504;-75
2023/05/03 06:47:55;;;;;;;2.90;2.02;;;29.30;46.20;;;;;;936730;152;27322;-75
2023/05/03 06:50:23;;;;;;;2.98;2.05;;;29.70;46.30;;;;;;937818;152;27466;-76
2023/05/03 06:52:49;;;;;;;2.98;2.05;;;30.00;45.70;;;;;;937295;151;27311;-75
2023/05/03 06:55:15;;;;;;;2.45;2.00;;;30.40;45.10;;;;;;937050;151;27358;-75
2023/05/03 06:57:42;;;;;;;3.20;1.98;;;30.70;44.50;;;;;;937098;149;27332;-75
2023/05/03 07:00:08;;;;;;;2.40;2.05;;;31.00;43.50;;;;;;936124;152;27309;-75
2023/05/03 07:02:36;;;;;;;3.30;1.92;;;31.20;42.90;;;;;;937800;152;27351;-75
2023/05/03 07:05:02;;;;;;;2.70;2.15;;;31.40;42.80;;;;;;937485;152;27361;-75
2023/05/03 07:07:28;;;;;;;2.10;1.80;;;31.60;42.60;;;;;;937402;152;27472;-76
2023/05/03 07:09:55;;;;;;;2.30;1.90;;;31.90;42.30;;;;;;937695;151;27389;-76
2023/05/03 07:12:26;;;;;;;2.20;1.77;;;32.20;41.70;;;;;;937785;152;26158;-76
2023/05/03 07:14:48;;;;;;;2.55;1.80;;;32.50;40.90;;;;;;937048;152;27287;-75
2023/05/03 07:17:14;;;;;;;4.10;1.95;;;32.70;40.50;;;;;;937713;152;26298;-75
2023/05/03 07:19:41;;;;;;;2.02;1.80;;;32.80;40.00;;;;;;936878;152;27334;-76
2023/05/03 07:22:08;;;;;;;2.05;1.85;;;33.10;40.60;;;;;;936981;149;27310;-76
2023/05/03 07:24:35;;;;;;;3.02;1.85;;;33.30;39.70;;;;;;937689;152;27319;-76
2023/05/03 07:27:02;;;;;;;1.60;1.40;;;33.60;39.30;;;;;;936851;151;27386;-76
2023/05/03 07:29:27;;;;;;;2.33;2.05;;;33.80;38.90;;;;;;937638;152;26261;-76
2023/05/03 07:31:54;;;;;;;1.82;1.67;;;34.10;38.60;;;;;;935933;150;26358;-76
2023/05/03 07:34:21;;;;;;;3.37;2.30;;;34.40;38.30;;;;;;937127;149;27358;-76
2023/05/03 07:36:47;;;;;;;2.08;1.57;;;34.80;37.80;;;;;;936751;149;26280;-76
2023/05/03 07:39:14;;;;;;;2.35;1.75;;;35.00;37.30;;;;;;913143;152;26284;-76
2023/05/03 07:41:40;;;;;;;1.70;1.40;;;35.20;36.80;;;;;;917431;152;26330;-76
2023/05/03 07:44:07;;;;;;;2.05;1.80;;;35.50;36.50;;;;;;911237;153;26305;-76
2023/05/03 07:46:34;;;;;;;4.00;1.82;;;35.60;36.10;;;;;;918667;152;26313;-76
2023/05/03 07:49:00;;;;;;;1.90;1.70;;;35.80;35.80;;;;;;942801;149;26351;-76
2023/05/03 07:51:27;;;;;;;3.22;2.00;;;35.90;35.40;;;;;;929511;151;26240;-76
2023/05/03 07:53:54;;;;;;;2.00;1.80;;;36.10;35.00;;;;;;918784;152;26247;-76
2023/05/03 07:56:20;;;;;;;2.65;1.90;;;36.20;34.50;;;;;;925632;153;26338;-76
2023/05/03 07:58:46;;;;;;;2.72;1.87;;;36.30;34.00;;;;;;942005;151;26290;-76
2023/05/03 08:01:13;;;;;;;2.20;2.00;;;36.20;33.60;;;;;;941718;150;26249;-76
2023/05/03 08:03:40;;;;;;;4.08;1.90;;;36.20;33.50;;;;;;925546;152;26349;-76
2023/05/03 08:06:07;;;;;;;2.75;1.70;;;36.20;33.40;;;;;;918947;153;26286;-76
2023/05/03 08:08:35;;;;;;;2.47;1.60;;;36.20;33.40;;;;;;941967;150;26251;-76
2023/05/03 08:10:59;;;;;;;2.77;1.90;;;36.30;33.50;;;;;;940883;149;26264;-76
2023/05/03 08:13:26;;;;;;;2.95;2.12;;;36.40;33.40;;;;;;940575;151;26329;-76
2023/05/03 08:15:53;;;;;;;2.12;1.90;;;36.70;33.20;;;;;;924240;153;26325;-76
2023/05/03 08:18:19;;;;;;;3.25;1.95;;;36.90;33.10;;;;;;917461;153;26362;-76
2023/05/03 08:20:46;;;;;;;4.30;1.98;;;37.10;32.60;;;;;;924757;153;26402;-76
2023/05/03 08:23:12;;;;;;;2.67;2.10;;;37.40;32.20;;;;;;937630;150;26299;-76
2023/05/03 08:25:39;;;;;;;2.02;1.80;;;37.50;31.80;;;;;;941293;150;26249;-76
2023/05/03 08:28:07;;;;;;;2.85;2.00;;;37.60;31.60;;;;;;917849;152;26360;-76
2023/05/03 08:30:32;;;;;;;3.25;2.30;;;37.80;31.50;;;;;;941969;149;26275;-77
2023/05/03 08:32:59;;;;;;;2.98;2.37;;;37.90;31.10;;;;;;941802;151;26268;-77
2023/05/03 08:35:26;;;;;;;2.20;1.95;;;38.00;31.20;;;;;;924870;152;26359;-77
2023/05/03 08:37:52;;;;;;;2.98;2.02;;;38.10;30.20;;;;;;917519;153;26194;-77
2023/05/03 08:40:20;;;;;;;2.72;1.92;;;38.10;30.00;;;;;;929558;154;26246;-77
2023/05/03 08:42:45;;;;;;;2.75;2.02;;;38.10;30.10;;;;;;941417;152;26287;-77
2023/05/03 08:45:13;;;;;;;3.50;1.92;;;38.10;30.00;;;;;;925794;155;27470;-77
2023/05/03 08:47:40;;;;;;;4.28;2.20;;;38.10;29.90;;;;;;935929;150;26358;-77
2023/05/03 08:50:05;;;;;;;1.95;1.77;;;38.20;29.70;;;;;;953229;147;26235;-77
2023/05/03 08:52:32;;;;;;;4.58;1.87;;;38.20;29.40;;;;;;953310;148;26266;-77
2023/05/03 08:54:58;;;;;;;3.15;2.10;;;38.20;29.40;;;;;;953039;147;26301;-77
2023/05/03 08:57:25;;;;;;;2.98;2.00;;;38.20;29.40;;;;;;936420;150;26219;-77
2023/05/03 08:59:59;;;;;;;3.83;2.00;;;38.20;29.20;;;;;;936186;150;26236;-77
2023/05/03 09:02:21;;;;;;;3.92;2.33;;;38.20;29.10;;;;;;952071;147;26261;-78
2023/05/03 09:04:47;;;;;;;1.87;1.67;;;38.20;29.00;;;;;;953680;147;26262;-78
2023/05/03 09:07:18;;;;;;;3.58;1.87;;;38.20;28.90;;;;;;952926;147;26314;-78
2023/05/03 09:09:43;;;;;;;3.02;2.20;;;38.10;28.70;;;;;;941953;148;26327;-77
2023/05/03 09:12:10;;;;;;;3.87;2.08;;;38.10;28.70;;;;;;953598;147;26266;-78
2023/05/03 09:14:42;;;;;;;2.37;2.17;;;38.10;28.60;;;;;;953620;147;26285;-78
2023/05/03 09:17:21;;;;;;;2.80;1.95;;;38.10;28.40;;;;;;953089;147;26262;-77
2023/05/03 09:19:51;;;;;;;2.75;2.10;;;38.00;28.00;;;;;;950840;147;26280;-77
2023/05/03 09:22:17;;;;;;;3.77;2.27;;;37.80;28.00;;;;;;953368;147;26230;-77
2023/05/03 09:24:53;;;;;;;4.10;2.25;;;37.50;28.10;;;;;;954054;147;26363;-78
2023/05/03 09:27:22;;;;;;;2.70;2.08;;;37.40;28.00;;;;;;953118;147;27525;-78
2023/05/03 09:29:46;;;;;;;2.10;1.90;;;37.20;27.80;;;;;;952609;147;26591;-78
2023/05/03 09:32:13;;;;;;;3.10;2.12;;;37.00;28.00;;;;;;953541;147;26284;-78
2023/05/03 09:34:39;;;;;;;1.95;1.85;;;36.90;28.20;;;;;;954193;147;26275;-78
2023/05/03 09:37:06;;;;;;;2.17;2.02;;;36.80;28.30;;;;;;953438;147;26293;-78
2023/05/03 09:39:33;;;;;;;2.83;2.08;;;36.60;27.90;;;;;;953694;147;26237;-78
2023/05/03 09:41:59;;;;;;;2.05;1.85;;;36.50;28.00;;;;;;953976;147;26203;-78
2023/05/03 09:44:41;;;;;;;2.30;2.10;;;36.30;27.80;;;;;;952275;147;26279;-78
2023/05/03 09:47:07;;;;;;;2.67;1.98;;;36.00;27.90;;;;;;950710;147;26262;-78
2023/05/03 09:49:35;;;;;;;3.35;2.10;;;35.80;28.00;;;;;;946994;148;26280;-78
2023/05/03 09:52:00;;;;;;;2.92;2.20;;;35.40;27.90;;;;;;947046;148;26328;-78
2023/05/03 09:54:27;;;;;;;2.08;1.90;;;35.00;28.00;;;;;;929179;151;26308;-78
2023/05/03 09:56:57;;;;;;;3.42;1.80;;;34.70;27.50;;;;;;927555;152;26279;-78
2023/05/03 09:59:23;;;;;;;2.52;2.27;;;34.20;27.70;;;;;;930129;151;27511;-78
2023/05/03 10:01:53;;;;;;;1.77;1.67;;;33.70;27.70;;;;;;946773;148;27330;-78
2023/05/03 10:04:19;;;;;;;4.62;2.00;;;33.20;27.90;;;;;;946959;148;27302;-78
2023/05/03 10:06:46;;;;;;;2.00;1.80;;;32.70;28.00;;;;;;947473;148;27360;-78
2023/05/03 10:09:22;;;;;;;4.55;2.15;;;32.20;28.10;;;;;;946890;148;27486;-78
2023/05/03 10:11:48;;;;;;;3.50;2.00;;;31.70;28.20;;;;;;946827;148;27403;-78
2023/05/03 10:14:14;;;;;;;2.83;2.55;;;31.30;28.40;;;;;;947335;148;27313;-78
2023/05/03 10:16:41;;;;;;;6.90;2.50;;;30.90;28.50;;;;;;950056;148;27465;-78
2023/05/03 10:19:22;;;;;;;5.92;2.00;;;30.50;28.50;;;;;;949754;148;27356;-77
2023/05/03 10:21:56;;;;;;;3.75;2.62;;;30.10;28.70;;;;;;946773;148;27305;-78
2023/05/03 10:24:21;;;;;;;1.87;1.77;;;29.60;28.80;;;;;;945847;148;27460;-78
2023/05/03 10:26:48;;;;;;;2.17;1.98;;;29.20;28.90;;;;;;946293;151;27446;-78
2023/05/03 10:29:33;;;;;;;3.25;1.62;;;28.70;29.00;;;;;;945347;148;27400;-78
2023/05/03 10:32:06;;;;;;;2.33;2.00;;;28.30;29.10;;;;;;926101;151;27482;-78
2023/05/03 10:34:32;;;;;;;3.05;2.10;;;27.80;29.40;;;;;;921269;151;27351;-78
2023/05/03 10:37:02;;;;;;;2.65;2.12;;;27.40;29.70;;;;;;929703;151;27465;-78
2023/05/03 10:39:28;;;;;;;3.22;2.20;;;27.10;30.10;;;;;;949086;148;27344;-78
2023/05/03 10:41:58;;;;;;;2.77;2.20;;;26.80;30.20;;;;;;946739;148;27348;-78
2023/05/03 10:44:40;;;;;;;3.10;2.00;;;26.50;30.30;;;;;;945631;148;27312;-78
2023/05/03 10:47:10;;;;;;;4.00;1.98;;;26.20;30.50;;;;;;945721;148;27364;-78
2023/05/03 10:49:36;;;;;;;2.42;1.98;;;26.00;30.80;;;;;;946987;148;27426;-78
2023/05/03 10:52:02;;;;;;;2.22;2.00;;;25.70;31.10;;;;;;947296;149;27441;-78
2023/05/03 10:54:29;;;;;;;2.35;2.15;;;25.50;31.40;;;;;;946792;148;27457;-78
2023/05/03 10:56:56;;;;;;;2.47;2.27;;;25.30;31.40;;;;;;946664;148;27349;-78
2023/05/03 10:59:23;;;;;;;2.58;2.05;;;25.10;31.50;;;;;;946895;148;27376;-78
2023/05/03 11:01:50;;;;;;;3.00;2.00;;;24.90;31.70;;;;;;947604;148;27350;-78
2023/05/03 11:04:15;;;;;;;3.22;2.20;;;24.70;32.00;;;;;;946848;148;27360;-78
2023/05/03 11:06:44;;;;;;;2.58;1.75;;;24.50;32.10;;;;;;925745;151;27484;-78
2023/05/03 11:09:09;;;;;;;2.47;2.08;;;24.30;32.40;;;;;;946748;148;27457;-78
2023/05/03 11:11:35;;;;;;;2.25;2.05;;;24.20;32.70;;;;;;929612;151;27397;-78
2023/05/03 11:14:02;;;;;;;1.85;1.75;;;24.10;32.90;;;;;;945943;148;27426;-78
2023/05/03 11:16:28;;;;;;;2.20;2.00;;;24.00;33.00;;;;;;929265;151;27649;-78
2023/05/03 11:18:55;;;;;;;2.30;1.80;;;23.90;33.30;;;;;;930687;151;27344;-78
2023/05/03 11:21:21;;;;;;;2.12;1.90;;;23.70;33.50;;;;;;926775;151;27351;-76
2023/05/03 11:23:48;;;;;;;3.80;2.05;;;23.70;33.80;;;;;;927401;151;27462;-78
2023/05/03 11:26:15;;;;;;;2.70;1.80;;;23.60;34.00;;;;;;947158;148;27361;-78
2023/05/03 11:28:41;;;;;;;1.90;1.80;;;23.50;34.00;;;;;;947622;148;27347;-78
2023/05/03 11:31:08;;;;;;;2.67;2.15;;;23.50;33.90;;;;;;946106;148;27340;-78
2023/05/03 11:33:34;;;;;;;2.12;1.92;;;23.40;33.80;;;;;;924228;151;27425;-78
2023/05/03 11:36:02;;;;;;;3.02;2.10;;;23.30;33.80;;;;;;929614;151;27387;-78
2023/05/03 11:38:28;;;;;;;2.10;1.95;;;23.30;33.90;;;;;;928852;151;27440;-78
2023/05/03 11:40:55;;;;;;;2.60;1.87;;;23.20;34.20;;;;;;947031;148;27979;-78
2023/05/03 11:43:21;;;;;;;2.10;1.77;;;23.00;34.20;;;;;;946881;148;27364;-78
2023/05/03 11:45:47;;;;;;;3.45;1.98;;;23.00;34.20;;;;;;947204;149;27367;-78
2023/05/03 11:48:15;;;;;;;2.17;1.98;;;22.90;34.40;;;;;;943212;148;27339;-78
2023/05/03 11:50:46;;;;;;;1.82;1.72;;;22.90;34.70;;;;;;934015;150;27364;-77
2023/05/03 11:53:13;;;;;;;2.47;1.87;;;22.80;34.70;;;;;;933959;150;27434;-78
2023/05/03 11:55:42;;;;;;;2.17;1.77;;;22.80;34.90;;;;;;913084;152;27392;-78
2023/05/03 11:58:11;;;;;;;2.72;2.17;;;22.80;35.00;;;;;;933420;149;27318;-78
2023/05/03 12:00:39;;;;;;;2.37;1.92;;;22.70;35.00;;;;;;934220;149;27314;-78
2023/05/03 12:03:07;;;;;;;1.75;1.62;;;22.70;35.20;;;;;;918229;152;27476;-78
2023/05/03 12:05:31;;;;;;;2.12;1.92;;;22.80;35.60;;;;;;918138;152;27930;-78
2023/05/03 12:07:58;;;;;;;4.60;2.50;;;22.80;35.60;;;;;;934801;149;27377;-78
2023/05/03 12:10:25;;;;;;;2.42;1.67;;;22.90;35.50;;;;;;921976;152;27332;-78
2023/05/03 12:12:55;;;;;;;2.27;2.08;;;22.90;35.50;;;;;;911445;153;27386;-78
2023/05/03 12:15:29;;;;;;;2.45;2.05;;;22.90;35.40;;;;;;918144;152;27500;-78
2023/05/03 12:17:56;;;;;;;1.87;1.72;;;22.90;35.20;;;;;;928129;150;27331;-78
2023/05/03 12:20:22;;;;;;;2.98;1.72;;;22.80;35.20;;;;;;934673;149;27383;-77
2023/05/03 12:22:49;;;;;;;2.37;1.70;;;22.70;34.70;;;;;;935780;149;27369;-78
2023/05/03 12:25:18;;;;;;;1.70;1.60;;;22.70;35.60;;;;;;918201;152;27383;-77
2023/05/03 12:27:45;;;;;;;1.82;1.60;;;22.60;35.60;;;;;;932710;149;27458;-78
2023/05/03 12:30:12;;;;;;;1.70;1.60;;;22.50;35.60;;;;;;933865;149;27343;-78
2023/05/03 12:32:38;;;;;;;2.52;2.02;;;22.50;35.70;;;;;;934255;149;27440;-78
2023/05/03 12:35:05;;;;;;;2.55;1.92;;;22.40;35.70;;;;;;933397;149;27450;-78
2023/05/03 12:37:31;;;;;;;3.00;1.87;;;22.40;35.80;;;;;;934211;149;27363;-78
2023/05/03 12:39:58;;;;;;;3.20;1.72;;;22.30;36.00;;;;;;934173;149;27294;-78
2023/05/03 12:42:25;;;;;;;6.12;2.00;;;22.30;36.10;;;;;;934694;149;27337;-77
2023/05/03 12:44:51;;;;;;;2.30;1.77;;;22.20;36.10;;;;;;933625;149;27514;-77
2023/05/03 12:47:18;;;;;;;2.52;2.22;;;22.20;36.30;;;;;;932730;149;27394;-78
2023/05/03 12:49:44;;;;;;;2.00;1.52;;;22.10;36.40;;;;;;946000;147;27470;-77